sensor_id;sensor_type;location;lat;lon;timestamp;P1;durP1;ratioP1;P2;durP2;ratioP2
60935;SDS011;46804;51.786;19.520;2022-07-22T00:03:25;11.65;;;4.75;;
60935;SDS011;46804;51.786;19.520;2022-07-22T00:07:27;11.30;;;5.07;;
60935;SDS011;46804;51.786;19.520;2022-07-22T00:11:27;9.55;;;3.97;;
60935;SDS011;46804;51.786;19.520;2022-07-22T00:15:29;10.35;;;4.65;;
60935;SDS011;46804;51.786;19.520;2022-07-22T00:19:29;8.70;;;4.82;;
60935;SDS011;46804;51.786;19.520;2022-07-22T00:23:30;9.18;;;3.90;;
60935;SDS011;46804;51.786;19.520;2022-07-22T00:27:31;6.57;;;4.35;;
60935;SDS011;46804;51.786;19.520;2022-07-22T00:31:32;9.48;;;4.50;;
60935;SDS011;46804;51.786;19.520;2022-07-22T00:35:33;12.38;;;5.13;;
60935;SDS011;46804;51.786;19.520;2022-07-22T00:39:34;12.20;;;4.95;;
60935;SDS011;46804;51.786;19.520;2022-07-22T00:43:50;7.65;;;4.70;;
60935;SDS011;46804;51.786;19.520;2022-07-22T00:47:59;11.68;;;5.43;;
60935;SDS011;46804;51.786;19.520;2022-07-22T00:52:00;10.73;;;4.90;;
60935;SDS011;46804;51.786;19.520;2022-07-22T00:56:02;13.52;;;4.95;;
60935;SDS011;46804;51.786;19.520;2022-07-22T01:00:04;10.18;;;4.85;;
60935;SDS011;46804;51.786;19.520;2022-07-22T01:04:09;10.00;;;5.78;;
60935;SDS011;46804;51.786;19.520;2022-07-22T01:08:10;6.80;;;4.53;;
60935;SDS011;46804;51.786;19.520;2022-07-22T01:12:11;11.10;;;4.78;;
60935;SDS011;46804;51.786;19.520;2022-07-22T01:16:13;7.55;;;5.05;;
60935;SDS011;46804;51.786;19.520;2022-07-22T01:20:16;9.60;;;4.43;;
60935;SDS011;46804;51.786;19.520;2022-07-22T01:24:17;8.20;;;5.25;;
60935;SDS011;46804;51.786;19.520;2022-07-22T01:28:19;7.68;;;4.72;;
60935;SDS011;46804;51.786;19.520;2022-07-22T01:32:19;10.18;;;4.80;;
60935;SDS011;46804;51.786;19.520;2022-07-22T01:36:21;12.77;;;5.10;;
60935;SDS011;46804;51.786;19.520;2022-07-22T01:40:22;11.32;;;4.90;;
60935;SDS011;46804;51.786;19.520;2022-07-22T01:44:22;7.78;;;4.72;;
60935;SDS011;46804;51.786;19.520;2022-07-22T01:48:23;10.70;;;4.70;;
60935;SDS011;46804;51.786;19.520;2022-07-22T01:52:24;11.07;;;5.50;;
60935;SDS011;46804;51.786;19.520;2022-07-22T01:56:24;9.32;;;4.45;;
60935;SDS011;46804;51.786;19.520;2022-07-22T02:00:25;11.73;;;5.40;;
60935;SDS011;46804;51.786;19.520;2022-07-22T02:04:26;10.77;;;5.05;;
60935;SDS011;46804;51.786;19.520;2022-07-22T02:08:26;9.43;;;4.15;;
60935;SDS011;46804;51.786;19.520;2022-07-22T02:12:27;10.07;;;4.60;;
60935;SDS011;46804;51.786;19.520;2022-07-22T02:16:28;7.75;;;4.80;;
60935;SDS011;46804;51.786;19.520;2022-07-22T02:20:29;12.55;;;5.53;;
60935;SDS011;46804;51.786;19.520;2022-07-22T02:24:29;13.30;;;5.20;;
60935;SDS011;46804;51.786;19.520;2022-07-22T02:28:30;9.20;;;4.32;;
60935;SDS011;46804;51.786;19.520;2022-07-22T02:32:31;10.13;;;4.40;;
60935;SDS011;46804;51.786;19.520;2022-07-22T02:36:31;8.13;;;5.03;;
60935;SDS011;46804;51.786;19.520;2022-07-22T02:40:32;12.88;;;5.57;;
60935;SDS011;46804;51.786;19.520;2022-07-22T02:44:33;8.73;;;4.55;;
60935;SDS011;46804;51.786;19.520;2022-07-22T02:48:33;12.43;;;5.05;;
60935;SDS011;46804;51.786;19.520;2022-07-22T02:52:34;9.48;;;4.30;;
60935;SDS011;46804;51.786;19.520;2022-07-22T02:56:34;9.73;;;5.15;;
60935;SDS011;46804;51.786;19.520;2022-07-22T03:00:35;12.27;;;5.53;;
60935;SDS011;46804;51.786;19.520;2022-07-22T03:04:38;10.75;;;4.70;;
60935;SDS011;46804;51.786;19.520;2022-07-22T03:08:38;8.93;;;5.28;;
60935;SDS011;46804;51.786;19.520;2022-07-22T03:12:39;14.32;;;6.00;;
60935;SDS011;46804;51.786;19.520;2022-07-22T03:16:39;15.10;;;5.97;;
60935;SDS011;46804;51.786;19.520;2022-07-22T03:20:40;9.30;;;5.38;;
60935;SDS011;46804;51.786;19.520;2022-07-22T03:24:41;9.93;;;6.13;;
60935;SDS011;46804;51.786;19.520;2022-07-22T03:28:41;12.43;;;5.70;;
60935;SDS011;46804;51.786;19.520;2022-07-22T03:32:42;10.57;;;5.63;;
60935;SDS011;46804;51.786;19.520;2022-07-22T03:36:45;10.40;;;5.25;;
60935;SDS011;46804;51.786;19.520;2022-07-22T03:40:45;8.85;;;4.88;;
60935;SDS011;46804;51.786;19.520;2022-07-22T03:44:46;9.43;;;4.97;;
60935;SDS011;46804;51.786;19.520;2022-07-22T03:48:47;7.97;;;5.05;;
60935;SDS011;46804;51.786;19.520;2022-07-22T03:52:47;8.82;;;4.95;;
60935;SDS011;46804;51.786;19.520;2022-07-22T03:56:48;8.57;;;5.35;;
60935;SDS011;46804;51.786;19.520;2022-07-22T04:00:48;9.32;;;5.28;;
60935;SDS011;46804;51.786;19.520;2022-07-22T04:04:49;11.93;;;5.60;;
60935;SDS011;46804;51.786;19.520;2022-07-22T04:08:50;13.65;;;5.20;;
60935;SDS011;46804;51.786;19.520;2022-07-22T04:12:50;9.73;;;5.25;;
60935;SDS011;46804;51.786;19.520;2022-07-22T04:16:51;8.10;;;5.25;;
60935;SDS011;46804;51.786;19.520;2022-07-22T04:20:51;8.35;;;5.78;;
60935;SDS011;46804;51.786;19.520;2022-07-22T04:24:52;9.85;;;6.07;;
60935;SDS011;46804;51.786;19.520;2022-07-22T04:28:52;12.23;;;6.10;;
60935;SDS011;46804;51.786;19.520;2022-07-22T04:32:53;9.18;;;6.20;;
60935;SDS011;46804;51.786;19.520;2022-07-22T04:36:54;13.35;;;6.70;;
60935;SDS011;46804;51.786;19.520;2022-07-22T04:40:54;14.43;;;7.30;;
60935;SDS011;46804;51.786;19.520;2022-07-22T04:44:55;14.13;;;7.35;;
60935;SDS011;46804;51.786;19.520;2022-07-22T04:48:56;9.65;;;7.30;;
60935;SDS011;46804;51.786;19.520;2022-07-22T04:52:56;13.48;;;8.18;;
60935;SDS011;46804;51.786;19.520;2022-07-22T04:56:57;15.63;;;8.43;;
60935;SDS011;46804;51.786;19.520;2022-07-22T05:00:57;15.13;;;9.27;;
60935;SDS011;46804;51.786;19.520;2022-07-22T05:04:58;13.57;;;9.07;;
60935;SDS011;46804;51.786;19.520;2022-07-22T05:08:58;13.63;;;9.60;;
60935;SDS011;46804;51.786;19.520;2022-07-22T05:12:59;13.52;;;9.25;;
60935;SDS011;46804;51.786;19.520;2022-07-22T05:17:00;12.27;;;9.02;;
60935;SDS011;46804;51.786;19.520;2022-07-22T05:21:01;19.25;;;9.35;;
60935;SDS011;46804;51.786;19.520;2022-07-22T05:25:03;16.35;;;10.20;;
60935;SDS011;46804;51.786;19.520;2022-07-22T05:29:04;15.52;;;9.38;;
60935;SDS011;46804;51.786;19.520;2022-07-22T05:33:04;16.65;;;9.93;;
60935;SDS011;46804;51.786;19.520;2022-07-22T05:37:05;16.15;;;9.02;;
60935;SDS011;46804;51.786;19.520;2022-07-22T05:41:05;18.30;;;9.45;;
60935;SDS011;46804;51.786;19.520;2022-07-22T05:45:06;20.27;;;10.65;;
60935;SDS011;46804;51.786;19.520;2022-07-22T05:49:07;14.95;;;8.90;;
60935;SDS011;46804;51.786;19.520;2022-07-22T05:53:08;24.00;;;9.90;;
60935;SDS011;46804;51.786;19.520;2022-07-22T05:57:08;13.25;;;9.60;;
60935;SDS011;46804;51.786;19.520;2022-07-22T06:01:10;15.77;;;9.30;;
60935;SDS011;46804;51.786;19.520;2022-07-22T06:05:11;13.73;;;9.32;;
60935;SDS011;46804;51.786;19.520;2022-07-22T06:09:12;17.17;;;10.30;;
60935;SDS011;46804;51.786;19.520;2022-07-22T06:13:12;18.67;;;10.02;;
60935;SDS011;46804;51.786;19.520;2022-07-22T06:17:13;12.45;;;8.90;;
60935;SDS011;46804;51.786;19.520;2022-07-22T06:21:14;13.43;;;9.27;;
60935;SDS011;46804;51.786;19.520;2022-07-22T06:25:14;18.50;;;9.68;;
60935;SDS011;46804;51.786;19.520;2022-07-22T06:29:15;16.70;;;9.32;;
60935;SDS011;46804;51.786;19.520;2022-07-22T06:33:16;16.50;;;9.77;;
60935;SDS011;46804;51.786;19.520;2022-07-22T06:37:16;13.93;;;9.68;;
60935;SDS011;46804;51.786;19.520;2022-07-22T06:41:17;10.82;;;9.05;;
60935;SDS011;46804;51.786;19.520;2022-07-22T06:45:20;15.90;;;8.57;;
60935;SDS011;46804;51.786;19.520;2022-07-22T06:49:21;16.30;;;8.82;;
60935;SDS011;46804;51.786;19.520;2022-07-22T06:53:21;11.52;;;8.38;;
60935;SDS011;46804;51.786;19.520;2022-07-22T06:57:22;10.90;;;7.57;;
60935;SDS011;46804;51.786;19.520;2022-07-22T07:01:22;13.18;;;7.75;;
60935;SDS011;46804;51.786;19.520;2022-07-22T07:05:23;14.07;;;7.28;;
60935;SDS011;46804;51.786;19.520;2022-07-22T07:09:25;12.43;;;7.47;;
60935;SDS011;46804;51.786;19.520;2022-07-22T07:13:26;12.23;;;7.30;;
60935;SDS011;46804;51.786;19.520;2022-07-22T07:17:26;10.95;;;7.45;;
60935;SDS011;46804;51.786;19.520;2022-07-22T07:21:27;15.13;;;6.75;;
60935;SDS011;46804;51.786;19.520;2022-07-22T07:25:28;11.32;;;6.95;;
60935;SDS011;46804;51.786;19.520;2022-07-22T07:29:29;10.18;;;6.85;;
60935;SDS011;46804;51.786;19.520;2022-07-22T07:33:29;9.68;;;6.80;;
60935;SDS011;46804;51.786;19.520;2022-07-22T07:37:30;13.80;;;6.90;;
60935;SDS011;46804;51.786;19.520;2022-07-22T07:41:31;7.95;;;6.32;;
60935;SDS011;46804;51.786;19.520;2022-07-22T07:45:31;9.85;;;6.57;;
60935;SDS011;46804;51.786;19.520;2022-07-22T07:49:33;9.40;;;6.35;;
60935;SDS011;46804;51.786;19.520;2022-07-22T07:53:33;9.15;;;5.72;;
60935;SDS011;46804;51.786;19.520;2022-07-22T07:57:34;10.20;;;6.25;;
60935;SDS011;46804;51.786;19.520;2022-07-22T08:01:37;10.13;;;6.30;;
60935;SDS011;46804;51.786;19.520;2022-07-22T08:05:37;7.25;;;5.63;;
60935;SDS011;46804;51.786;19.520;2022-07-22T08:09:42;8.55;;;6.30;;
60935;SDS011;46804;51.786;19.520;2022-07-22T08:13:43;7.93;;;5.80;;
60935;SDS011;46804;51.786;19.520;2022-07-22T08:17:44;9.18;;;6.05;;
60935;SDS011;46804;51.786;19.520;2022-07-22T08:21:44;12.80;;;6.00;;
60935;SDS011;46804;51.786;19.520;2022-07-22T08:25:45;8.88;;;5.63;;
60935;SDS011;46804;51.786;19.520;2022-07-22T08:29:46;9.40;;;6.13;;
60935;SDS011;46804;51.786;19.520;2022-07-22T08:33:46;9.20;;;5.78;;
60935;SDS011;46804;51.786;19.520;2022-07-22T08:37:47;8.50;;;5.90;;
60935;SDS011;46804;51.786;19.520;2022-07-22T08:41:48;7.70;;;5.70;;
60935;SDS011;46804;51.786;19.520;2022-07-22T08:45:49;9.95;;;6.05;;
60935;SDS011;46804;51.786;19.520;2022-07-22T08:49:50;9.07;;;5.93;;
60935;SDS011;46804;51.786;19.520;2022-07-22T08:53:51;9.82;;;5.90;;
60935;SDS011;46804;51.786;19.520;2022-07-22T08:57:52;11.43;;;5.93;;
60935;SDS011;46804;51.786;19.520;2022-07-22T09:02:05;10.88;;;5.93;;
60935;SDS011;46804;51.786;19.520;2022-07-22T09:06:08;9.48;;;5.68;;
60935;SDS011;46804;51.786;19.520;2022-07-22T09:10:10;7.32;;;5.13;;
60935;SDS011;46804;51.786;19.520;2022-07-22T09:14:13;7.20;;;5.22;;
60935;SDS011;46804;51.786;19.520;2022-07-22T09:18:14;8.07;;;4.87;;
60935;SDS011;46804;51.786;19.520;2022-07-22T09:22:15;11.30;;;5.90;;
60935;SDS011;46804;51.786;19.520;2022-07-22T09:26:32;8.70;;;6.18;;
60935;SDS011;46804;51.786;19.520;2022-07-22T09:30:38;9.23;;;5.63;;
60935;SDS011;46804;51.786;19.520;2022-07-22T09:34:44;9.07;;;5.43;;
60935;SDS011;46804;51.786;19.520;2022-07-22T09:38:45;9.27;;;5.63;;
60935;SDS011;46804;51.786;19.520;2022-07-22T09:42:48;12.17;;;6.07;;
60935;SDS011;46804;51.786;19.520;2022-07-22T09:46:50;9.30;;;5.75;;
60935;SDS011;46804;51.786;19.520;2022-07-22T09:50:51;8.80;;;5.67;;
60935;SDS011;46804;51.786;19.520;2022-07-22T09:54:53;9.20;;;5.47;;
60935;SDS011;46804;51.786;19.520;2022-07-22T09:58:54;8.30;;;5.53;;
60935;SDS011;46804;51.786;19.520;2022-07-22T10:02:57;8.47;;;5.03;;
60935;SDS011;46804;51.786;19.520;2022-07-22T10:06:58;8.20;;;5.03;;
60935;SDS011;46804;51.786;19.520;2022-07-22T10:11:02;8.07;;;4.80;;
60935;SDS011;46804;51.786;19.520;2022-07-22T10:15:05;8.07;;;5.00;;
60935;SDS011;46804;51.786;19.520;2022-07-22T10:19:08;10.18;;;4.85;;
60935;SDS011;46804;51.786;19.520;2022-07-22T10:23:09;11.20;;;4.67;;
60935;SDS011;46804;51.786;19.520;2022-07-22T10:27:11;9.57;;;4.75;;
60935;SDS011;46804;51.786;19.520;2022-07-22T10:35:24;8.93;;;4.85;;
60935;SDS011;46804;51.786;19.520;2022-07-22T10:39:25;8.90;;;4.90;;
60935;SDS011;46804;51.786;19.520;2022-07-22T10:43:30;6.97;;;4.25;;
60935;SDS011;46804;51.786;19.520;2022-07-22T10:48:05;11.05;;;4.68;;
60935;SDS011;46804;51.786;19.520;2022-07-22T10:52:12;6.80;;;4.72;;
60935;SDS011;46804;51.786;19.520;2022-07-22T10:56:34;6.53;;;4.40;;
60935;SDS011;46804;51.786;19.520;2022-07-22T11:00:36;8.70;;;4.93;;
60935;SDS011;46804;51.786;19.520;2022-07-22T11:04:37;9.00;;;5.00;;
60935;SDS011;46804;51.786;19.520;2022-07-22T11:08:38;6.88;;;4.95;;
60935;SDS011;46804;51.786;19.520;2022-07-22T11:12:38;8.77;;;5.27;;
60935;SDS011;46804;51.786;19.520;2022-07-22T11:16:40;6.32;;;4.88;;
60935;SDS011;46804;51.786;19.520;2022-07-22T11:20:40;14.33;;;5.80;;
60935;SDS011;46804;51.786;19.520;2022-07-22T11:24:42;11.80;;;5.18;;
60935;SDS011;46804;51.786;19.520;2022-07-22T11:28:48;11.27;;;5.60;;
60935;SDS011;46804;51.786;19.520;2022-07-22T11:32:48;11.35;;;5.35;;
60935;SDS011;46804;51.786;19.520;2022-07-22T11:36:49;8.97;;;5.27;;
60935;SDS011;46804;51.786;19.520;2022-07-22T11:40:51;9.25;;;5.18;;
60935;SDS011;46804;51.786;19.520;2022-07-22T11:44:51;10.07;;;4.60;;
60935;SDS011;46804;51.786;19.520;2022-07-22T11:48:52;11.52;;;5.15;;
60935;SDS011;46804;51.786;19.520;2022-07-22T11:52:54;9.15;;;5.00;;
60935;SDS011;46804;51.786;19.520;2022-07-22T11:56:55;10.37;;;5.43;;
60935;SDS011;46804;51.786;19.520;2022-07-22T12:00:56;9.35;;;5.07;;
60935;SDS011;46804;51.786;19.520;2022-07-22T12:04:57;7.87;;;4.83;;
60935;SDS011;46804;51.786;19.520;2022-07-22T12:13:31;9.43;;;4.82;;
60935;SDS011;46804;51.786;19.520;2022-07-22T12:21:33;7.00;;;4.43;;
60935;SDS011;46804;51.786;19.520;2022-07-22T12:25:49;7.68;;;4.25;;
60935;SDS011;46804;51.786;19.520;2022-07-22T12:29:50;6.32;;;4.32;;
60935;SDS011;46804;51.786;19.520;2022-07-22T12:33:51;6.73;;;4.40;;
60935;SDS011;46804;51.786;19.520;2022-07-22T12:37:51;7.33;;;4.40;;
60935;SDS011;46804;51.786;19.520;2022-07-22T12:41:52;8.17;;;4.33;;
60935;SDS011;46804;51.786;19.520;2022-07-22T12:45:54;7.60;;;4.35;;
60935;SDS011;46804;51.786;19.520;2022-07-22T12:54:40;7.10;;;4.40;;
60935;SDS011;46804;51.786;19.520;2022-07-22T12:58:41;5.63;;;3.97;;
60935;SDS011;46804;51.786;19.520;2022-07-22T13:02:41;7.30;;;4.40;;
60935;SDS011;46804;51.786;19.520;2022-07-22T13:06:42;6.40;;;4.07;;
60935;SDS011;46804;51.786;19.520;2022-07-22T13:10:43;5.60;;;4.50;;
60935;SDS011;46804;51.786;19.520;2022-07-22T13:14:43;7.40;;;4.30;;
60935;SDS011;46804;51.786;19.520;2022-07-22T13:18:44;7.20;;;4.47;;
60935;SDS011;46804;51.786;19.520;2022-07-22T13:22:45;6.73;;;4.53;;
60935;SDS011;46804;51.786;19.520;2022-07-22T13:26:46;6.73;;;4.00;;
60935;SDS011;46804;51.786;19.520;2022-07-22T13:30:46;7.40;;;4.40;;
60935;SDS011;46804;51.786;19.520;2022-07-22T13:34:47;7.57;;;4.50;;
60935;SDS011;46804;51.786;19.520;2022-07-22T13:38:48;5.93;;;4.30;;
60935;SDS011;46804;51.786;19.520;2022-07-22T13:42:49;6.95;;;4.10;;
60935;SDS011;46804;51.786;19.520;2022-07-22T13:46:49;6.17;;;4.23;;
60935;SDS011;46804;51.786;19.520;2022-07-22T13:50:50;6.90;;;4.30;;
60935;SDS011;46804;51.786;19.520;2022-07-22T13:54:51;8.13;;;4.23;;
60935;SDS011;46804;51.786;19.520;2022-07-22T13:58:51;6.47;;;4.67;;
60935;SDS011;46804;51.786;19.520;2022-07-22T14:02:52;10.27;;;4.43;;
60935;SDS011;46804;51.786;19.520;2022-07-22T14:06:52;5.67;;;4.47;;
60935;SDS011;46804;51.786;19.520;2022-07-22T14:10:53;6.67;;;4.50;;
60935;SDS011;46804;51.786;19.520;2022-07-22T14:14:54;7.80;;;4.70;;
60935;SDS011;46804;51.786;19.520;2022-07-22T14:18:54;6.33;;;4.40;;
60935;SDS011;46804;51.786;19.520;2022-07-22T14:22:55;6.33;;;4.47;;
60935;SDS011;46804;51.786;19.520;2022-07-22T14:26:55;5.83;;;4.40;;
60935;SDS011;46804;51.786;19.520;2022-07-22T14:30:56;6.63;;;4.33;;
60935;SDS011;46804;51.786;19.520;2022-07-22T14:34:57;9.33;;;4.30;;
60935;SDS011;46804;51.786;19.520;2022-07-22T14:38:57;9.90;;;4.27;;
60935;SDS011;46804;51.786;19.520;2022-07-22T14:42:58;5.07;;;3.87;;
60935;SDS011;46804;51.786;19.520;2022-07-22T14:46:58;5.37;;;4.20;;
60935;SDS011;46804;51.786;19.520;2022-07-22T14:50:59;7.83;;;4.13;;
60935;SDS011;46804;51.786;19.520;2022-07-22T14:55:00;6.33;;;4.27;;
60935;SDS011;46804;51.786;19.520;2022-07-22T14:59:01;5.23;;;4.00;;
60935;SDS011;46804;51.786;19.520;2022-07-22T15:03:02;18.10;;;4.63;;
60935;SDS011;46804;51.786;19.520;2022-07-22T15:07:03;8.03;;;4.33;;
60935;SDS011;46804;51.786;19.520;2022-07-22T15:11:03;6.53;;;4.27;;
60935;SDS011;46804;51.786;19.520;2022-07-22T15:15:05;7.50;;;4.32;;
60935;SDS011;46804;51.786;19.520;2022-07-22T15:19:06;5.50;;;4.00;;
60935;SDS011;46804;51.786;19.520;2022-07-22T15:23:06;7.03;;;4.27;;
60935;SDS011;46804;51.786;19.520;2022-07-22T15:27:07;6.60;;;3.80;;
60935;SDS011;46804;51.786;19.520;2022-07-22T15:31:07;6.15;;;4.00;;
60935;SDS011;46804;51.786;19.520;2022-07-22T15:35:08;7.15;;;4.28;;
60935;SDS011;46804;51.786;19.520;2022-07-22T15:39:09;5.32;;;4.15;;
60935;SDS011;46804;51.786;19.520;2022-07-22T15:43:09;6.28;;;3.70;;
60935;SDS011;46804;51.786;19.520;2022-07-22T15:47:10;7.32;;;4.32;;
60935;SDS011;46804;51.786;19.520;2022-07-22T15:51:11;8.45;;;4.55;;
60935;SDS011;46804;51.786;19.520;2022-07-22T15:55:11;8.30;;;4.32;;
60935;SDS011;46804;51.786;19.520;2022-07-22T15:59:12;7.28;;;4.30;;
60935;SDS011;46804;51.786;19.520;2022-07-22T16:03:31;6.57;;;4.30;;
60935;SDS011;46804;51.786;19.520;2022-07-22T16:07:31;6.28;;;4.40;;
60935;SDS011;46804;51.786;19.520;2022-07-22T16:11:32;6.80;;;3.95;;
60935;SDS011;46804;51.786;19.520;2022-07-22T16:15:33;11.65;;;4.93;;
60935;SDS011;46804;51.786;19.520;2022-07-22T16:19:33;11.67;;;4.03;;
60935;SDS011;46804;51.786;19.520;2022-07-22T16:23:34;8.02;;;4.22;;
60935;SDS011;46804;51.786;19.520;2022-07-22T16:27:34;7.87;;;3.80;;
60935;SDS011;46804;51.786;19.520;2022-07-22T16:31:35;6.68;;;4.13;;
60935;SDS011;46804;51.786;19.520;2022-07-22T16:35:36;7.28;;;4.18;;
60935;SDS011;46804;51.786;19.520;2022-07-22T16:39:36;4.85;;;3.55;;
60935;SDS011;46804;51.786;19.520;2022-07-22T16:43:37;6.55;;;3.63;;
60935;SDS011;46804;51.786;19.520;2022-07-22T16:47:38;5.57;;;4.05;;
60935;SDS011;46804;51.786;19.520;2022-07-22T16:51:38;8.20;;;3.80;;
60935;SDS011;46804;51.786;19.520;2022-07-22T16:55:39;6.07;;;3.75;;
60935;SDS011;46804;51.786;19.520;2022-07-22T16:59:39;6.35;;;3.30;;
60935;SDS011;46804;51.786;19.520;2022-07-22T17:03:40;4.93;;;4.00;;
60935;SDS011;46804;51.786;19.520;2022-07-22T17:07:41;6.93;;;3.50;;
60935;SDS011;46804;51.786;19.520;2022-07-22T17:11:42;7.88;;;3.63;;
60935;SDS011;46804;51.786;19.520;2022-07-22T17:15:42;8.23;;;4.00;;
60935;SDS011;46804;51.786;19.520;2022-07-22T17:19:43;6.43;;;3.60;;
60935;SDS011;46804;51.786;19.520;2022-07-22T17:23:43;5.35;;;3.65;;
60935;SDS011;46804;51.786;19.520;2022-07-22T17:27:44;5.72;;;3.58;;
60935;SDS011;46804;51.786;19.520;2022-07-22T17:31:45;6.80;;;3.80;;
60935;SDS011;46804;51.786;19.520;2022-07-22T17:35:45;5.95;;;3.45;;
60935;SDS011;46804;51.786;19.520;2022-07-22T17:39:46;5.60;;;3.50;;
60935;SDS011;46804;51.786;19.520;2022-07-22T17:43:46;5.18;;;3.65;;
60935;SDS011;46804;51.786;19.520;2022-07-22T17:47:47;4.90;;;3.30;;
60935;SDS011;46804;51.786;19.520;2022-07-22T17:51:48;6.88;;;4.20;;
60935;SDS011;46804;51.786;19.520;2022-07-22T17:55:48;6.90;;;3.80;;
60935;SDS011;46804;51.786;19.520;2022-07-22T17:59:49;10.13;;;3.75;;
60935;SDS011;46804;51.786;19.520;2022-07-22T18:03:49;7.30;;;3.78;;
60935;SDS011;46804;51.786;19.520;2022-07-22T18:07:50;5.95;;;4.28;;
60935;SDS011;46804;51.786;19.520;2022-07-22T18:11:50;6.70;;;4.00;;
60935;SDS011;46804;51.786;19.520;2022-07-22T18:15:51;5.35;;;3.78;;
60935;SDS011;46804;51.786;19.520;2022-07-22T18:19:52;7.05;;;4.15;;
60935;SDS011;46804;51.786;19.520;2022-07-22T18:23:53;5.00;;;3.80;;
60935;SDS011;46804;51.786;19.520;2022-07-22T18:27:56;6.10;;;4.30;;
60935;SDS011;46804;51.786;19.520;2022-07-22T18:31:56;8.40;;;3.85;;
60935;SDS011;46804;51.786;19.520;2022-07-22T18:35:57;10.02;;;4.38;;
60935;SDS011;46804;51.786;19.520;2022-07-22T18:39:57;8.10;;;4.57;;
60935;SDS011;46804;51.786;19.520;2022-07-22T18:43:58;6.10;;;4.03;;
60935;SDS011;46804;51.786;19.520;2022-07-22T18:47:59;12.32;;;4.90;;
60935;SDS011;46804;51.786;19.520;2022-07-22T18:51:59;9.30;;;4.55;;
60935;SDS011;46804;51.786;19.520;2022-07-22T18:56:00;12.75;;;4.97;;
60935;SDS011;46804;51.786;19.520;2022-07-22T19:00:00;10.75;;;5.93;;
60935;SDS011;46804;51.786;19.520;2022-07-22T19:04:02;12.15;;;4.80;;
60935;SDS011;46804;51.786;19.520;2022-07-22T19:08:02;16.00;;;5.45;;
60935;SDS011;46804;51.786;19.520;2022-07-22T19:12:04;23.33;;;5.10;;
60935;SDS011;46804;51.786;19.520;2022-07-22T19:16:05;19.45;;;5.75;;
60935;SDS011;46804;51.786;19.520;2022-07-22T19:20:06;10.88;;;5.18;;
60935;SDS011;46804;51.786;19.520;2022-07-22T19:24:07;9.45;;;5.22;;
60935;SDS011;46804;51.786;19.520;2022-07-22T19:28:08;15.05;;;4.72;;
60935;SDS011;46804;51.786;19.520;2022-07-22T19:32:08;9.23;;;5.20;;
60935;SDS011;46804;51.786;19.520;2022-07-22T19:36:09;9.45;;;5.28;;
60935;SDS011;46804;51.786;19.520;2022-07-22T19:40:09;9.05;;;4.75;;
60935;SDS011;46804;51.786;19.520;2022-07-22T19:44:10;7.70;;;4.70;;
60935;SDS011;46804;51.786;19.520;2022-07-22T19:48:11;6.65;;;4.82;;
60935;SDS011;46804;51.786;19.520;2022-07-22T19:52:11;7.32;;;4.30;;
60935;SDS011;46804;51.786;19.520;2022-07-22T19:56:12;6.40;;;5.00;;
60935;SDS011;46804;51.786;19.520;2022-07-22T20:00:13;10.82;;;4.93;;
60935;SDS011;46804;51.786;19.520;2022-07-22T20:04:13;7.30;;;5.22;;
60935;SDS011;46804;51.786;19.520;2022-07-22T20:08:14;13.05;;;5.32;;
60935;SDS011;46804;51.786;19.520;2022-07-22T20:12:15;9.65;;;5.53;;
60935;SDS011;46804;51.786;19.520;2022-07-22T20:16:16;11.82;;;6.13;;
60935;SDS011;46804;51.786;19.520;2022-07-22T20:20:16;11.70;;;5.88;;
60935;SDS011;46804;51.786;19.520;2022-07-22T20:24:17;14.65;;;7.07;;
60935;SDS011;46804;51.786;19.520;2022-07-22T20:28:17;13.68;;;7.22;;
60935;SDS011;46804;51.786;19.520;2022-07-22T20:32:18;10.23;;;6.28;;
60935;SDS011;46804;51.786;19.520;2022-07-22T20:36:18;7.88;;;5.22;;
60935;SDS011;46804;51.786;19.520;2022-07-22T20:40:19;10.43;;;5.47;;
60935;SDS011;46804;51.786;19.520;2022-07-22T20:44:20;10.77;;;5.22;;
60935;SDS011;46804;51.786;19.520;2022-07-22T20:48:20;7.95;;;5.05;;
60935;SDS011;46804;51.786;19.520;2022-07-22T20:52:21;9.95;;;5.38;;
60935;SDS011;46804;51.786;19.520;2022-07-22T20:56:22;7.50;;;5.10;;
60935;SDS011;46804;51.786;19.520;2022-07-22T21:00:22;12.15;;;5.90;;
60935;SDS011;46804;51.786;19.520;2022-07-22T21:04:24;12.57;;;5.70;;
60935;SDS011;46804;51.786;19.520;2022-07-22T21:08:25;19.30;;;6.43;;
60935;SDS011;46804;51.786;19.520;2022-07-22T21:12:27;15.93;;;5.60;;
60935;SDS011;46804;51.786;19.520;2022-07-22T21:16:28;7.25;;;5.30;;
60935;SDS011;46804;51.786;19.520;2022-07-22T21:20:30;7.38;;;5.40;;
60935;SDS011;46804;51.786;19.520;2022-07-22T21:24:32;7.00;;;5.20;;
60935;SDS011;46804;51.786;19.520;2022-07-22T21:28:35;10.57;;;5.80;;
60935;SDS011;46804;51.786;19.520;2022-07-22T21:32:39;10.70;;;5.45;;
60935;SDS011;46804;51.786;19.520;2022-07-22T21:36:42;11.30;;;5.30;;
60935;SDS011;46804;51.786;19.520;2022-07-22T21:40:42;8.98;;;5.22;;
60935;SDS011;46804;51.786;19.520;2022-07-22T21:44:43;9.93;;;5.20;;
60935;SDS011;46804;51.786;19.520;2022-07-22T21:48:44;7.75;;;5.32;;
60935;SDS011;46804;51.786;19.520;2022-07-22T21:52:45;9.02;;;5.35;;
60935;SDS011;46804;51.786;19.520;2022-07-22T21:56:45;8.20;;;5.30;;
60935;SDS011;46804;51.786;19.520;2022-07-22T22:00:57;8.65;;;5.93;;
60935;SDS011;46804;51.786;19.520;2022-07-22T22:04:58;7.75;;;5.38;;
60935;SDS011;46804;51.786;19.520;2022-07-22T22:08:59;7.38;;;5.18;;
60935;SDS011;46804;51.786;19.520;2022-07-22T22:12:59;14.20;;;5.70;;
60935;SDS011;46804;51.786;19.520;2022-07-22T22:17:00;7.57;;;5.43;;
60935;SDS011;46804;51.786;19.520;2022-07-22T22:21:03;8.50;;;5.75;;
60935;SDS011;46804;51.786;19.520;2022-07-22T22:25:04;6.97;;;5.30;;
60935;SDS011;46804;51.786;19.520;2022-07-22T22:29:10;11.77;;;6.18;;
60935;SDS011;46804;51.786;19.520;2022-07-22T22:33:11;6.60;;;5.55;;
60935;SDS011;46804;51.786;19.520;2022-07-22T22:37:12;7.68;;;5.32;;
60935;SDS011;46804;51.786;19.520;2022-07-22T22:41:12;7.20;;;6.03;;
60935;SDS011;46804;51.786;19.520;2022-07-22T22:45:13;8.82;;;5.63;;
60935;SDS011;46804;51.786;19.520;2022-07-22T22:49:13;9.00;;;5.40;;
60935;SDS011;46804;51.786;19.520;2022-07-22T22:53:14;12.57;;;6.22;;
60935;SDS011;46804;51.786;19.520;2022-07-22T22:57:14;8.27;;;5.82;;
60935;SDS011;46804;51.786;19.520;2022-07-22T23:01:15;6.82;;;5.40;;
60935;SDS011;46804;51.786;19.520;2022-07-22T23:05:15;8.32;;;6.00;;
60935;SDS011;46804;51.786;19.520;2022-07-22T23:09:16;10.05;;;6.18;;
60935;SDS011;46804;51.786;19.520;2022-07-22T23:13:16;10.15;;;6.32;;
60935;SDS011;46804;51.786;19.520;2022-07-22T23:17:17;10.43;;;6.40;;
60935;SDS011;46804;51.786;19.520;2022-07-22T23:21:18;8.70;;;6.15;;
60935;SDS011;46804;51.786;19.520;2022-07-22T23:25:18;8.70;;;6.75;;
60935;SDS011;46804;51.786;19.520;2022-07-22T23:29:19;11.40;;;7.10;;
60935;SDS011;46804;51.786;19.520;2022-07-22T23:33:19;8.65;;;6.40;;
60935;SDS011;46804;51.786;19.520;2022-07-22T23:37:20;8.85;;;6.32;;
60935;SDS011;46804;51.786;19.520;2022-07-22T23:41:20;11.05;;;7.20;;
60935;SDS011;46804;51.786;19.520;2022-07-22T23:45:21;9.85;;;6.43;;
60935;SDS011;46804;51.786;19.520;2022-07-22T23:49:22;9.80;;;6.50;;
60935;SDS011;46804;51.786;19.520;2022-07-22T23:53:23;11.10;;;6.65;;
60935;SDS011;46804;51.786;19.520;2022-07-22T23:57:24;10.70;;;6.80;;
